sensor_id;sensor_type;location;lat;lon;timestamp;P1;durP1;ratioP1;P2;durP2;ratioP2
49784;SDS011;35679;38.732;-121.358;2022-10-16T00:02:44;10.65;;;6.88;;
49784;SDS011;35679;38.732;-121.358;2022-10-16T00:05:39;14.90;;;7.45;;
49784;SDS011;35679;38.732;-121.358;2022-10-16T00:08:30;9.55;;;7.25;;
49784;SDS011;35679;38.732;-121.358;2022-10-16T00:11:21;12.07;;;8.00;;
49784;SDS011;35679;38.732;-121.358;2022-10-16T00:14:15;11.77;;;7.45;;
49784;SDS011;35679;38.732;-121.358;2022-10-16T00:17:07;14.38;;;7.45;;
49784;SDS011;35679;38.732;-121.358;2022-10-16T00:19:58;10.82;;;7.90;;
49784;SDS011;35679;38.732;-121.358;2022-10-16T00:22:48;11.65;;;7.82;;
49784;SDS011;35679;38.732;-121.358;2022-10-16T00:25:39;11.25;;;6.80;;
49784;SDS011;35679;38.732;-121.358;2022-10-16T00:28:29;13.27;;;7.45;;
49784;SDS011;35679;38.732;-121.358;2022-10-16T00:31:20;11.43;;;7.10;;
49784;SDS011;35679;38.732;-121.358;2022-10-16T00:34:12;11.13;;;7.28;;
49784;SDS011;35679;38.732;-121.358;2022-10-16T00:37:02;7.88;;;6.85;;
49784;SDS011;35679;38.732;-121.358;2022-10-16T00:39:53;14.65;;;7.30;;
49784;SDS011;35679;38.732;-121.358;2022-10-16T00:42:43;11.13;;;7.63;;
49784;SDS011;35679;38.732;-121.358;2022-10-16T00:45:34;11.32;;;7.13;;
49784;SDS011;35679;38.732;-121.358;2022-10-16T00:48:24;9.95;;;7.63;;
49784;SDS011;35679;38.732;-121.358;2022-10-16T00:51:15;11.50;;;7.28;;
49784;SDS011;35679;38.732;-121.358;2022-10-16T00:54:23;11.25;;;6.93;;
49784;SDS011;35679;38.732;-121.358;2022-10-16T00:57:17;9.13;;;7.60;;
49784;SDS011;35679;38.732;-121.358;2022-10-16T01:00:09;12.45;;;7.28;;
49784;SDS011;35679;38.732;-121.358;2022-10-16T01:03:02;8.70;;;7.22;;
49784;SDS011;35679;38.732;-121.358;2022-10-16T01:06:19;11.00;;;6.85;;
49784;SDS011;35679;38.732;-121.358;2022-10-16T01:09:26;10.27;;;6.60;;
49784;SDS011;35679;38.732;-121.358;2022-10-16T01:22:00;8.95;;;6.82;;
49784;SDS011;35679;38.732;-121.358;2022-10-16T01:24:53;8.32;;;7.18;;
49784;SDS011;35679;38.732;-121.358;2022-10-16T01:27:45;8.13;;;6.90;;
49784;SDS011;35679;38.732;-121.358;2022-10-16T01:30:37;9.80;;;6.63;;
49784;SDS011;35679;38.732;-121.358;2022-10-16T01:33:36;7.40;;;6.53;;
49784;SDS011;35679;38.732;-121.358;2022-10-16T01:36:39;10.38;;;7.03;;
49784;SDS011;35679;38.732;-121.358;2022-10-16T01:39:43;10.00;;;6.68;;
49784;SDS011;35679;38.732;-121.358;2022-10-16T01:42:40;8.57;;;6.97;;
49784;SDS011;35679;38.732;-121.358;2022-10-16T01:45:35;8.52;;;6.30;;
49784;SDS011;35679;38.732;-121.358;2022-10-16T01:48:26;8.27;;;6.55;;
49784;SDS011;35679;38.732;-121.358;2022-10-16T01:51:18;10.85;;;6.97;;
49784;SDS011;35679;38.732;-121.358;2022-10-16T01:54:09;10.40;;;6.45;;
49784;SDS011;35679;38.732;-121.358;2022-10-16T01:57:03;7.85;;;6.30;;
49784;SDS011;35679;38.732;-121.358;2022-10-16T01:59:58;9.82;;;7.18;;
49784;SDS011;35679;38.732;-121.358;2022-10-16T02:02:58;9.45;;;7.03;;
49784;SDS011;35679;38.732;-121.358;2022-10-16T02:05:54;8.45;;;6.20;;
49784;SDS011;35679;38.732;-121.358;2022-10-16T02:08:46;6.70;;;5.93;;
49784;SDS011;35679;38.732;-121.358;2022-10-16T02:11:38;7.88;;;6.32;;
49784;SDS011;35679;38.732;-121.358;2022-10-16T02:14:29;7.93;;;6.65;;
49784;SDS011;35679;38.732;-121.358;2022-10-16T02:17:20;8.98;;;6.03;;
49784;SDS011;35679;38.732;-121.358;2022-10-16T02:20:10;8.07;;;6.20;;
49784;SDS011;35679;38.732;-121.358;2022-10-16T02:23:02;8.07;;;6.53;;
49784;SDS011;35679;38.732;-121.358;2022-10-16T02:25:53;8.87;;;6.37;;
49784;SDS011;35679;38.732;-121.358;2022-10-16T02:28:48;7.70;;;6.28;;
49784;SDS011;35679;38.732;-121.358;2022-10-16T02:31:43;8.15;;;6.40;;
49784;SDS011;35679;38.732;-121.358;2022-10-16T02:34:40;6.63;;;5.97;;
49784;SDS011;35679;38.732;-121.358;2022-10-16T02:37:31;7.38;;;6.43;;
49784;SDS011;35679;38.732;-121.358;2022-10-16T02:40:22;6.93;;;5.82;;
49784;SDS011;35679;38.732;-121.358;2022-10-16T02:43:13;6.88;;;5.68;;
49784;SDS011;35679;38.732;-121.358;2022-10-16T02:46:05;8.32;;;5.72;;
49784;SDS011;35679;38.732;-121.358;2022-10-16T02:48:55;6.78;;;5.88;;
49784;SDS011;35679;38.732;-121.358;2022-10-16T02:51:45;7.70;;;6.18;;
49784;SDS011;35679;38.732;-121.358;2022-10-16T02:54:36;8.57;;;5.82;;
49784;SDS011;35679;38.732;-121.358;2022-10-16T02:57:26;7.75;;;5.57;;
49784;SDS011;35679;38.732;-121.358;2022-10-16T03:00:17;6.05;;;5.35;;
49784;SDS011;35679;38.732;-121.358;2022-10-16T03:03:07;8.07;;;5.72;;
49784;SDS011;35679;38.732;-121.358;2022-10-16T03:05:57;6.43;;;5.22;;
49784;SDS011;35679;38.732;-121.358;2022-10-16T03:08:48;6.22;;;4.95;;
49784;SDS011;35679;38.732;-121.358;2022-10-16T03:11:38;7.78;;;5.55;;
49784;SDS011;35679;38.732;-121.358;2022-10-16T03:14:28;7.78;;;5.38;;
49784;SDS011;35679;38.732;-121.358;2022-10-16T03:17:18;9.75;;;5.95;;
49784;SDS011;35679;38.732;-121.358;2022-10-16T03:20:08;5.90;;;5.07;;
49784;SDS011;35679;38.732;-121.358;2022-10-16T03:22:58;6.03;;;5.18;;
49784;SDS011;35679;38.732;-121.358;2022-10-16T03:25:49;6.80;;;5.47;;
49784;SDS011;35679;38.732;-121.358;2022-10-16T03:28:39;7.35;;;5.28;;
49784;SDS011;35679;38.732;-121.358;2022-10-16T03:31:30;6.28;;;5.63;;
49784;SDS011;35679;38.732;-121.358;2022-10-16T03:34:23;6.30;;;5.28;;
49784;SDS011;35679;38.732;-121.358;2022-10-16T03:37:15;8.32;;;5.68;;
49784;SDS011;35679;38.732;-121.358;2022-10-16T03:40:05;7.22;;;5.25;;
49784;SDS011;35679;38.732;-121.358;2022-10-16T03:42:56;6.40;;;5.18;;
49784;SDS011;35679;38.732;-121.358;2022-10-16T03:45:47;6.63;;;5.10;;
49784;SDS011;35679;38.732;-121.358;2022-10-16T03:48:39;7.30;;;5.20;;
49784;SDS011;35679;38.732;-121.358;2022-10-16T03:51:30;10.60;;;5.43;;
49784;SDS011;35679;38.732;-121.358;2022-10-16T03:54:20;8.00;;;4.97;;
49784;SDS011;35679;38.732;-121.358;2022-10-16T03:57:10;8.07;;;5.75;;
49784;SDS011;35679;38.732;-121.358;2022-10-16T04:00:00;6.47;;;5.32;;
49784;SDS011;35679;38.732;-121.358;2022-10-16T04:02:58;6.75;;;5.20;;
49784;SDS011;35679;38.732;-121.358;2022-10-16T04:05:48;6.40;;;5.45;;
49784;SDS011;35679;38.732;-121.358;2022-10-16T04:08:42;7.40;;;5.50;;
49784;SDS011;35679;38.732;-121.358;2022-10-16T04:11:32;6.32;;;4.90;;
49784;SDS011;35679;38.732;-121.358;2022-10-16T04:14:23;6.97;;;5.45;;
49784;SDS011;35679;38.732;-121.358;2022-10-16T04:17:14;7.25;;;5.47;;
49784;SDS011;35679;38.732;-121.358;2022-10-16T04:20:05;6.68;;;5.03;;
49784;SDS011;35679;38.732;-121.358;2022-10-16T04:22:57;8.40;;;5.57;;
49784;SDS011;35679;38.732;-121.358;2022-10-16T04:25:47;6.60;;;5.50;;
49784;SDS011;35679;38.732;-121.358;2022-10-16T04:28:38;6.13;;;5.32;;
49784;SDS011;35679;38.732;-121.358;2022-10-16T04:31:30;6.72;;;5.30;;
49784;SDS011;35679;38.732;-121.358;2022-10-16T04:34:21;8.13;;;5.68;;
49784;SDS011;35679;38.732;-121.358;2022-10-16T04:37:11;7.20;;;5.60;;
49784;SDS011;35679;38.732;-121.358;2022-10-16T04:40:02;7.90;;;5.47;;
49784;SDS011;35679;38.732;-121.358;2022-10-16T04:42:53;6.03;;;5.43;;
49784;SDS011;35679;38.732;-121.358;2022-10-16T04:45:44;7.38;;;5.47;;
49784;SDS011;35679;38.732;-121.358;2022-10-16T04:48:34;8.65;;;5.65;;
49784;SDS011;35679;38.732;-121.358;2022-10-16T04:51:25;6.82;;;5.50;;
49784;SDS011;35679;38.732;-121.358;2022-10-16T04:54:16;8.48;;;6.03;;
49784;SDS011;35679;38.732;-121.358;2022-10-16T04:57:07;6.55;;;5.63;;
49784;SDS011;35679;38.732;-121.358;2022-10-16T05:00:00;6.72;;;5.10;;
49784;SDS011;35679;38.732;-121.358;2022-10-16T05:02:53;6.47;;;5.40;;
49784;SDS011;35679;38.732;-121.358;2022-10-16T05:05:44;7.93;;;5.90;;
49784;SDS011;35679;38.732;-121.358;2022-10-16T05:08:35;7.78;;;5.50;;
49784;SDS011;35679;38.732;-121.358;2022-10-16T05:11:26;9.23;;;5.90;;
49784;SDS011;35679;38.732;-121.358;2022-10-16T05:14:16;9.07;;;6.00;;
49784;SDS011;35679;38.732;-121.358;2022-10-16T05:17:07;9.15;;;5.88;;
49784;SDS011;35679;38.732;-121.358;2022-10-16T05:19:57;7.95;;;5.47;;
49784;SDS011;35679;38.732;-121.358;2022-10-16T05:22:48;9.38;;;5.97;;
49784;SDS011;35679;38.732;-121.358;2022-10-16T05:25:39;7.63;;;6.03;;
49784;SDS011;35679;38.732;-121.358;2022-10-16T05:28:29;8.45;;;6.20;;
49784;SDS011;35679;38.732;-121.358;2022-10-16T05:31:20;7.45;;;6.00;;
49784;SDS011;35679;38.732;-121.358;2022-10-16T05:34:10;6.72;;;5.80;;
49784;SDS011;35679;38.732;-121.358;2022-10-16T05:37:00;7.78;;;5.80;;
49784;SDS011;35679;38.732;-121.358;2022-10-16T05:39:51;11.18;;;6.30;;
49784;SDS011;35679;38.732;-121.358;2022-10-16T05:42:42;9.23;;;6.13;;
49784;SDS011;35679;38.732;-121.358;2022-10-16T05:45:32;8.02;;;6.18;;
49784;SDS011;35679;38.732;-121.358;2022-10-16T05:48:23;8.75;;;6.18;;
49784;SDS011;35679;38.732;-121.358;2022-10-16T05:51:14;8.40;;;6.20;;
49784;SDS011;35679;38.732;-121.358;2022-10-16T05:54:05;10.23;;;6.35;;
49784;SDS011;35679;38.732;-121.358;2022-10-16T05:56:55;8.52;;;6.50;;
49784;SDS011;35679;38.732;-121.358;2022-10-16T05:59:45;7.93;;;6.18;;
49784;SDS011;35679;38.732;-121.358;2022-10-16T06:02:36;6.82;;;5.78;;
49784;SDS011;35679;38.732;-121.358;2022-10-16T06:05:26;10.07;;;6.18;;
49784;SDS011;35679;38.732;-121.358;2022-10-16T06:08:17;8.55;;;6.32;;
49784;SDS011;35679;38.732;-121.358;2022-10-16T06:11:09;7.82;;;6.10;;
49784;SDS011;35679;38.732;-121.358;2022-10-16T06:14:01;9.93;;;6.78;;
49784;SDS011;35679;38.732;-121.358;2022-10-16T06:16:55;6.82;;;5.38;;
49784;SDS011;35679;38.732;-121.358;2022-10-16T06:19:46;8.80;;;6.00;;
49784;SDS011;35679;38.732;-121.358;2022-10-16T06:22:36;7.57;;;5.88;;
49784;SDS011;35679;38.732;-121.358;2022-10-16T06:25:27;9.73;;;6.53;;
49784;SDS011;35679;38.732;-121.358;2022-10-16T06:28:16;10.38;;;6.50;;
49784;SDS011;35679;38.732;-121.358;2022-10-16T06:31:08;8.93;;;5.57;;
49784;SDS011;35679;38.732;-121.358;2022-10-16T06:34:00;9.90;;;6.40;;
49784;SDS011;35679;38.732;-121.358;2022-10-16T06:36:51;8.57;;;6.03;;
49784;SDS011;35679;38.732;-121.358;2022-10-16T06:39:44;8.85;;;6.55;;
49784;SDS011;35679;38.732;-121.358;2022-10-16T06:42:35;7.45;;;6.07;;
49784;SDS011;35679;38.732;-121.358;2022-10-16T06:45:25;8.75;;;6.07;;
49784;SDS011;35679;38.732;-121.358;2022-10-16T06:48:15;8.88;;;6.20;;
49784;SDS011;35679;38.732;-121.358;2022-10-16T06:51:07;10.02;;;6.93;;
49784;SDS011;35679;38.732;-121.358;2022-10-16T06:53:59;9.30;;;6.43;;
49784;SDS011;35679;38.732;-121.358;2022-10-16T06:56:51;8.93;;;6.37;;
49784;SDS011;35679;38.732;-121.358;2022-10-16T06:59:43;8.32;;;6.38;;
49784;SDS011;35679;38.732;-121.358;2022-10-16T07:02:33;9.23;;;6.13;;
49784;SDS011;35679;38.732;-121.358;2022-10-16T07:05:23;8.95;;;6.55;;
49784;SDS011;35679;38.732;-121.358;2022-10-16T07:08:13;9.40;;;6.65;;
49784;SDS011;35679;38.732;-121.358;2022-10-16T07:11:07;9.52;;;6.47;;
49784;SDS011;35679;38.732;-121.358;2022-10-16T07:14:00;10.77;;;6.75;;
49784;SDS011;35679;38.732;-121.358;2022-10-16T07:16:50;8.85;;;6.65;;
49784;SDS011;35679;38.732;-121.358;2022-10-16T07:19:41;11.25;;;6.68;;
49784;SDS011;35679;38.732;-121.358;2022-10-16T07:22:31;8.15;;;6.15;;
49784;SDS011;35679;38.732;-121.358;2022-10-16T07:25:21;8.98;;;7.00;;
49784;SDS011;35679;38.732;-121.358;2022-10-16T07:28:11;10.18;;;6.50;;
49784;SDS011;35679;38.732;-121.358;2022-10-16T07:31:02;10.00;;;6.50;;
49784;SDS011;35679;38.732;-121.358;2022-10-16T07:33:53;10.75;;;6.93;;
49784;SDS011;35679;38.732;-121.358;2022-10-16T07:36:46;11.50;;;7.00;;
49784;SDS011;35679;38.732;-121.358;2022-10-16T07:39:38;8.77;;;6.40;;
49784;SDS011;35679;38.732;-121.358;2022-10-16T07:42:28;10.70;;;7.35;;
49784;SDS011;35679;38.732;-121.358;2022-10-16T07:45:18;9.90;;;6.78;;
49784;SDS011;35679;38.732;-121.358;2022-10-16T07:48:09;8.32;;;6.65;;
49784;SDS011;35679;38.732;-121.358;2022-10-16T07:51:00;9.95;;;6.80;;
49784;SDS011;35679;38.732;-121.358;2022-10-16T07:56:43;9.02;;;6.90;;
49784;SDS011;35679;38.732;-121.358;2022-10-16T07:59:33;10.52;;;7.22;;
49784;SDS011;35679;38.732;-121.358;2022-10-16T08:02:25;10.02;;;6.70;;
49784;SDS011;35679;38.732;-121.358;2022-10-16T08:05:16;9.98;;;6.93;;
49784;SDS011;35679;38.732;-121.358;2022-10-16T08:08:06;10.38;;;6.95;;
49784;SDS011;35679;38.732;-121.358;2022-10-16T08:10:56;10.07;;;7.28;;
49784;SDS011;35679;38.732;-121.358;2022-10-16T08:13:46;9.00;;;6.63;;
49784;SDS011;35679;38.732;-121.358;2022-10-16T08:16:37;9.25;;;6.28;;
49784;SDS011;35679;38.732;-121.358;2022-10-16T08:19:28;9.70;;;6.82;;
49784;SDS011;35679;38.732;-121.358;2022-10-16T08:22:20;12.38;;;7.13;;
49784;SDS011;35679;38.732;-121.358;2022-10-16T08:25:11;10.05;;;7.20;;
49784;SDS011;35679;38.732;-121.358;2022-10-16T08:28:06;9.70;;;7.20;;
49784;SDS011;35679;38.732;-121.358;2022-10-16T08:31:09;10.23;;;7.50;;
49784;SDS011;35679;38.732;-121.358;2022-10-16T08:34:22;12.38;;;7.32;;
49784;SDS011;35679;38.732;-121.358;2022-10-16T08:37:13;12.38;;;7.72;;
49784;SDS011;35679;38.732;-121.358;2022-10-16T08:40:05;10.85;;;7.70;;
49784;SDS011;35679;38.732;-121.358;2022-10-16T08:43:21;7.95;;;6.35;;
49784;SDS011;35679;38.732;-121.358;2022-10-16T08:49:28;7.68;;;6.82;;
49784;SDS011;35679;38.732;-121.358;2022-10-16T08:52:20;9.63;;;7.38;;
49784;SDS011;35679;38.732;-121.358;2022-10-16T08:55:17;10.18;;;7.57;;
49784;SDS011;35679;38.732;-121.358;2022-10-16T08:58:22;11.73;;;7.65;;
49784;SDS011;35679;38.732;-121.358;2022-10-16T09:01:17;11.00;;;7.30;;
49784;SDS011;35679;38.732;-121.358;2022-10-16T09:07:32;11.52;;;7.20;;
49784;SDS011;35679;38.732;-121.358;2022-10-16T09:10:37;12.35;;;8.15;;
49784;SDS011;35679;38.732;-121.358;2022-10-16T09:16:46;9.50;;;7.20;;
49784;SDS011;35679;38.732;-121.358;2022-10-16T09:19:49;10.57;;;7.45;;
49784;SDS011;35679;38.732;-121.358;2022-10-16T09:22:46;10.68;;;7.13;;
49784;SDS011;35679;38.732;-121.358;2022-10-16T09:25:36;13.00;;;7.47;;
49784;SDS011;35679;38.732;-121.358;2022-10-16T09:28:29;10.20;;;6.95;;
49784;SDS011;35679;38.732;-121.358;2022-10-16T09:31:20;10.63;;;7.60;;
49784;SDS011;35679;38.732;-121.358;2022-10-16T09:37:24;10.60;;;7.43;;
49784;SDS011;35679;38.732;-121.358;2022-10-16T09:40:33;13.55;;;7.63;;
49784;SDS011;35679;38.732;-121.358;2022-10-16T09:46:41;8.88;;;6.97;;
49784;SDS011;35679;38.732;-121.358;2022-10-16T09:49:32;11.90;;;7.88;;
49784;SDS011;35679;38.732;-121.358;2022-10-16T09:52:23;8.27;;;7.10;;
49784;SDS011;35679;38.732;-121.358;2022-10-16T09:55:16;12.35;;;7.22;;
49784;SDS011;35679;38.732;-121.358;2022-10-16T09:58:11;13.50;;;7.95;;
49784;SDS011;35679;38.732;-121.358;2022-10-16T10:01:03;11.80;;;8.18;;
49784;SDS011;35679;38.732;-121.358;2022-10-16T10:03:56;11.20;;;7.82;;
49784;SDS011;35679;38.732;-121.358;2022-10-16T10:06:52;10.60;;;7.72;;
49784;SDS011;35679;38.732;-121.358;2022-10-16T10:09:45;11.00;;;7.68;;
49784;SDS011;35679;38.732;-121.358;2022-10-16T10:12:36;10.25;;;7.72;;
49784;SDS011;35679;38.732;-121.358;2022-10-16T10:15:27;9.90;;;7.40;;
49784;SDS011;35679;38.732;-121.358;2022-10-16T10:18:23;12.75;;;7.95;;
49784;SDS011;35679;38.732;-121.358;2022-10-16T10:21:15;8.75;;;7.15;;
49784;SDS011;35679;38.732;-121.358;2022-10-16T10:24:11;10.32;;;7.13;;
49784;SDS011;35679;38.732;-121.358;2022-10-16T10:27:06;10.55;;;7.97;;
49784;SDS011;35679;38.732;-121.358;2022-10-16T10:30:15;11.93;;;7.60;;
49784;SDS011;35679;38.732;-121.358;2022-10-16T10:39:31;10.23;;;7.40;;
49784;SDS011;35679;38.732;-121.358;2022-10-16T10:42:36;10.77;;;7.70;;
49784;SDS011;35679;38.732;-121.358;2022-10-16T10:48:46;9.90;;;7.70;;
49784;SDS011;35679;38.732;-121.358;2022-10-16T10:54:53;11.57;;;7.93;;
49784;SDS011;35679;38.732;-121.358;2022-10-16T11:07:32;9.68;;;7.45;;
49784;SDS011;35679;38.732;-121.358;2022-10-16T11:10:35;9.00;;;7.35;;
49784;SDS011;35679;38.732;-121.358;2022-10-16T11:13:55;11.15;;;7.35;;
49784;SDS011;35679;38.732;-121.358;2022-10-16T11:16:54;11.68;;;7.88;;
49784;SDS011;35679;38.732;-121.358;2022-10-16T11:23:33;12.20;;;7.25;;
49784;SDS011;35679;38.732;-121.358;2022-10-16T11:26:33;11.88;;;7.88;;
49784;SDS011;35679;38.732;-121.358;2022-10-16T11:29:30;11.30;;;8.32;;
49784;SDS011;35679;38.732;-121.358;2022-10-16T11:32:27;11.10;;;8.23;;
49784;SDS011;35679;38.732;-121.358;2022-10-16T11:35:25;12.38;;;8.30;;
49784;SDS011;35679;38.732;-121.358;2022-10-16T11:45:17;10.00;;;7.95;;
49784;SDS011;35679;38.732;-121.358;2022-10-16T11:48:33;12.15;;;7.90;;
49784;SDS011;35679;38.732;-121.358;2022-10-16T11:51:33;11.25;;;8.20;;
49784;SDS011;35679;38.732;-121.358;2022-10-16T11:54:38;12.05;;;8.10;;
49784;SDS011;35679;38.732;-121.358;2022-10-16T11:57:39;12.73;;;8.43;;
49784;SDS011;35679;38.732;-121.358;2022-10-16T12:00:46;11.50;;;8.32;;
49784;SDS011;35679;38.732;-121.358;2022-10-16T12:03:56;11.18;;;7.85;;
49784;SDS011;35679;38.732;-121.358;2022-10-16T12:06:57;12.77;;;8.85;;
49784;SDS011;35679;38.732;-121.358;2022-10-16T12:09:50;12.55;;;8.15;;
49784;SDS011;35679;38.732;-121.358;2022-10-16T12:12:40;12.63;;;8.57;;
49784;SDS011;35679;38.732;-121.358;2022-10-16T12:15:34;12.07;;;7.95;;
49784;SDS011;35679;38.732;-121.358;2022-10-16T12:18:45;12.50;;;8.10;;
49784;SDS011;35679;38.732;-121.358;2022-10-16T12:21:36;13.00;;;7.95;;
49784;SDS011;35679;38.732;-121.358;2022-10-16T12:24:30;10.32;;;7.80;;
49784;SDS011;35679;38.732;-121.358;2022-10-16T12:27:29;11.73;;;8.15;;
49784;SDS011;35679;38.732;-121.358;2022-10-16T12:30:24;13.60;;;8.43;;
49784;SDS011;35679;38.732;-121.358;2022-10-16T12:33:22;12.93;;;8.75;;
49784;SDS011;35679;38.732;-121.358;2022-10-16T12:36:16;13.48;;;8.05;;
49784;SDS011;35679;38.732;-121.358;2022-10-16T12:39:22;11.15;;;8.05;;
49784;SDS011;35679;38.732;-121.358;2022-10-16T12:45:26;11.13;;;8.02;;
49784;SDS011;35679;38.732;-121.358;2022-10-16T12:48:18;11.98;;;8.55;;
49784;SDS011;35679;38.732;-121.358;2022-10-16T12:54:29;11.35;;;8.10;;
49784;SDS011;35679;38.732;-121.358;2022-10-16T13:00:45;10.80;;;8.25;;
49784;SDS011;35679;38.732;-121.358;2022-10-16T13:04:02;12.80;;;8.23;;
49784;SDS011;35679;38.732;-121.358;2022-10-16T13:16:51;13.45;;;9.00;;
49784;SDS011;35679;38.732;-121.358;2022-10-16T13:19:58;14.38;;;9.35;;
49784;SDS011;35679;38.732;-121.358;2022-10-16T13:23:23;16.95;;;8.68;;
49784;SDS011;35679;38.732;-121.358;2022-10-16T13:29:30;14.10;;;8.70;;
49784;SDS011;35679;38.732;-121.358;2022-10-16T13:32:22;16.85;;;10.00;;
49784;SDS011;35679;38.732;-121.358;2022-10-16T13:35:27;19.42;;;9.32;;
49784;SDS011;35679;38.732;-121.358;2022-10-16T13:38:26;21.90;;;10.38;;
49784;SDS011;35679;38.732;-121.358;2022-10-16T13:41:17;23.48;;;9.73;;
49784;SDS011;35679;38.732;-121.358;2022-10-16T13:44:27;23.83;;;10.65;;
49784;SDS011;35679;38.732;-121.358;2022-10-16T13:47:22;18.60;;;9.10;;
49784;SDS011;35679;38.732;-121.358;2022-10-16T13:50:16;20.83;;;9.35;;
49784;SDS011;35679;38.732;-121.358;2022-10-16T13:53:14;17.42;;;10.00;;
49784;SDS011;35679;38.732;-121.358;2022-10-16T13:56:05;24.73;;;9.85;;
49784;SDS011;35679;38.732;-121.358;2022-10-16T13:59:07;20.67;;;9.32;;
49784;SDS011;35679;38.732;-121.358;2022-10-16T14:02:30;20.38;;;10.02;;
49784;SDS011;35679;38.732;-121.358;2022-10-16T14:05:23;17.88;;;9.82;;
49784;SDS011;35679;38.732;-121.358;2022-10-16T14:08:13;21.67;;;9.95;;
49784;SDS011;35679;38.732;-121.358;2022-10-16T14:11:04;21.58;;;10.25;;
49784;SDS011;35679;38.732;-121.358;2022-10-16T14:13:55;18.92;;;10.07;;
49784;SDS011;35679;38.732;-121.358;2022-10-16T14:16:46;19.33;;;9.98;;
49784;SDS011;35679;38.732;-121.358;2022-10-16T14:19:36;18.10;;;9.52;;
49784;SDS011;35679;38.732;-121.358;2022-10-16T14:22:31;16.90;;;10.30;;
49784;SDS011;35679;38.732;-121.358;2022-10-16T14:25:26;20.77;;;10.32;;
49784;SDS011;35679;38.732;-121.358;2022-10-16T14:28:20;17.05;;;10.05;;
49784;SDS011;35679;38.732;-121.358;2022-10-16T14:34:29;18.67;;;10.50;;
49784;SDS011;35679;38.732;-121.358;2022-10-16T14:37:23;19.25;;;10.65;;
49784;SDS011;35679;38.732;-121.358;2022-10-16T14:40:16;22.67;;;11.23;;
49784;SDS011;35679;38.732;-121.358;2022-10-16T14:43:14;20.10;;;10.55;;
49784;SDS011;35679;38.732;-121.358;2022-10-16T14:46:30;19.67;;;10.52;;
49784;SDS011;35679;38.732;-121.358;2022-10-16T14:49:31;17.45;;;9.15;;
49784;SDS011;35679;38.732;-121.358;2022-10-16T14:52:22;20.10;;;10.82;;
49784;SDS011;35679;38.732;-121.358;2022-10-16T14:55:12;16.13;;;10.90;;
49784;SDS011;35679;38.732;-121.358;2022-10-16T14:58:04;19.17;;;11.43;;
49784;SDS011;35679;38.732;-121.358;2022-10-16T15:00:55;18.35;;;10.77;;
49784;SDS011;35679;38.732;-121.358;2022-10-16T15:03:46;23.77;;;11.25;;
49784;SDS011;35679;38.732;-121.358;2022-10-16T15:06:37;20.02;;;12.30;;
49784;SDS011;35679;38.732;-121.358;2022-10-16T15:09:28;21.23;;;11.35;;
49784;SDS011;35679;38.732;-121.358;2022-10-16T15:12:19;20.33;;;11.40;;
49784;SDS011;35679;38.732;-121.358;2022-10-16T15:15:56;23.15;;;12.20;;
49784;SDS011;35679;38.732;-121.358;2022-10-16T15:18:27;20.88;;;11.43;;
49784;SDS011;35679;38.732;-121.358;2022-10-16T15:21:25;17.75;;;11.70;;
49784;SDS011;35679;38.732;-121.358;2022-10-16T15:24:18;23.17;;;13.32;;
49784;SDS011;35679;38.732;-121.358;2022-10-16T15:27:09;23.75;;;13.43;;
49784;SDS011;35679;38.732;-121.358;2022-10-16T15:29:59;24.50;;;13.38;;
49784;SDS011;35679;38.732;-121.358;2022-10-16T15:32:49;24.60;;;12.73;;
49784;SDS011;35679;38.732;-121.358;2022-10-16T15:35:39;28.35;;;12.20;;
49784;SDS011;35679;38.732;-121.358;2022-10-16T15:38:29;24.40;;;13.60;;
49784;SDS011;35679;38.732;-121.358;2022-10-16T15:41:20;22.55;;;13.00;;
49784;SDS011;35679;38.732;-121.358;2022-10-16T15:44:11;21.65;;;12.80;;
49784;SDS011;35679;38.732;-121.358;2022-10-16T15:47:01;24.08;;;12.80;;
49784;SDS011;35679;38.732;-121.358;2022-10-16T15:49:52;24.27;;;13.88;;
49784;SDS011;35679;38.732;-121.358;2022-10-16T15:52:42;27.33;;;14.23;;
49784;SDS011;35679;38.732;-121.358;2022-10-16T15:55:33;24.63;;;14.18;;
49784;SDS011;35679;38.732;-121.358;2022-10-16T15:58:28;30.27;;;14.23;;
49784;SDS011;35679;38.732;-121.358;2022-10-16T16:01:19;25.98;;;12.57;;
49784;SDS011;35679;38.732;-121.358;2022-10-16T16:04:11;30.38;;;13.90;;
49784;SDS011;35679;38.732;-121.358;2022-10-16T16:07:21;26.15;;;13.13;;
49784;SDS011;35679;38.732;-121.358;2022-10-16T16:10:11;25.70;;;13.60;;
49784;SDS011;35679;38.732;-121.358;2022-10-16T16:13:02;25.73;;;13.07;;
49784;SDS011;35679;38.732;-121.358;2022-10-16T16:15:53;28.63;;;12.10;;
49784;SDS011;35679;38.732;-121.358;2022-10-16T16:18:45;23.27;;;12.68;;
49784;SDS011;35679;38.732;-121.358;2022-10-16T16:21:37;24.90;;;13.38;;
49784;SDS011;35679;38.732;-121.358;2022-10-16T16:24:27;24.95;;;12.65;;
49784;SDS011;35679;38.732;-121.358;2022-10-16T16:27:18;26.20;;;12.52;;
49784;SDS011;35679;38.732;-121.358;2022-10-16T16:30:10;22.25;;;13.82;;
49784;SDS011;35679;38.732;-121.358;2022-10-16T16:33:07;24.67;;;12.60;;
49784;SDS011;35679;38.732;-121.358;2022-10-16T16:36:01;25.52;;;13.68;;
49784;SDS011;35679;38.732;-121.358;2022-10-16T16:38:57;27.70;;;13.30;;
49784;SDS011;35679;38.732;-121.358;2022-10-16T16:41:49;25.37;;;13.90;;
49784;SDS011;35679;38.732;-121.358;2022-10-16T16:44:40;23.35;;;13.20;;
49784;SDS011;35679;38.732;-121.358;2022-10-16T16:47:30;28.10;;;14.32;;
49784;SDS011;35679;38.732;-121.358;2022-10-16T16:50:21;28.85;;;12.77;;
49784;SDS011;35679;38.732;-121.358;2022-10-16T16:53:12;24.17;;;13.48;;
49784;SDS011;35679;38.732;-121.358;2022-10-16T16:56:05;25.92;;;12.20;;
49784;SDS011;35679;38.732;-121.358;2022-10-16T16:58:56;25.38;;;12.40;;
49784;SDS011;35679;38.732;-121.358;2022-10-16T17:01:46;20.42;;;12.20;;
49784;SDS011;35679;38.732;-121.358;2022-10-16T17:04:44;24.58;;;12.38;;
49784;SDS011;35679;38.732;-121.358;2022-10-16T17:07:34;23.95;;;12.73;;
49784;SDS011;35679;38.732;-121.358;2022-10-16T17:10:25;20.30;;;11.95;;
49784;SDS011;35679;38.732;-121.358;2022-10-16T17:13:15;21.65;;;12.23;;
49784;SDS011;35679;38.732;-121.358;2022-10-16T17:16:06;26.92;;;12.52;;
49784;SDS011;35679;38.732;-121.358;2022-10-16T17:19:03;20.40;;;12.05;;
49784;SDS011;35679;38.732;-121.358;2022-10-16T17:21:57;22.08;;;11.63;;
49784;SDS011;35679;38.732;-121.358;2022-10-16T17:24:47;19.35;;;11.80;;
49784;SDS011;35679;38.732;-121.358;2022-10-16T17:27:42;22.15;;;12.00;;
49784;SDS011;35679;38.732;-121.358;2022-10-16T17:30:33;19.02;;;11.48;;
49784;SDS011;35679;38.732;-121.358;2022-10-16T17:33:24;20.30;;;11.07;;
49784;SDS011;35679;38.732;-121.358;2022-10-16T17:36:16;23.73;;;11.90;;
49784;SDS011;35679;38.732;-121.358;2022-10-16T17:42:01;21.53;;;11.70;;
49784;SDS011;35679;38.732;-121.358;2022-10-16T17:44:52;20.98;;;12.25;;
49784;SDS011;35679;38.732;-121.358;2022-10-16T17:47:43;19.88;;;10.88;;
49784;SDS011;35679;38.732;-121.358;2022-10-16T17:50:34;20.05;;;11.73;;
49784;SDS011;35679;38.732;-121.358;2022-10-16T17:53:28;19.90;;;11.70;;
49784;SDS011;35679;38.732;-121.358;2022-10-16T17:56:18;21.00;;;11.52;;
49784;SDS011;35679;38.732;-121.358;2022-10-16T17:59:10;18.45;;;11.63;;
49784;SDS011;35679;38.732;-121.358;2022-10-16T18:02:00;19.98;;;12.20;;